sensor_id;sensor_type;location;lat;lon;timestamp;pressure;altitude;pressure_sealevel;temperature;humidity
15405;BME280;7801;48.124;11.590;2023-05-25T00:01:29;95699.44;;;13.03;68.43
15405;BME280;7801;48.124;11.590;2023-05-25T00:03:55;95706.22;;;13.09;68.58
15405;BME280;7801;48.124;11.590;2023-05-25T00:06:21;95710.19;;;13.26;68.45
15405;BME280;7801;48.124;11.590;2023-05-25T00:08:46;95713.03;;;13.29;68.35
15405;BME280;7801;48.124;11.590;2023-05-25T00:11:13;95711.28;;;13.25;67.88
15405;BME280;7801;48.124;11.590;2023-05-25T00:13:38;95713.22;;;13.33;67.78
15405;BME280;7801;48.124;11.590;2023-05-25T00:16:04;95715.91;;;13.05;68.58
15405;BME280;7801;48.124;11.590;2023-05-25T00:18:31;95708.44;;;13.07;68.69
15405;BME280;7801;48.124;11.590;2023-05-25T00:20:57;95723.69;;;13.29;68.19
15405;BME280;7801;48.124;11.590;2023-05-25T00:23:23;95712.81;;;13.39;67.82
15405;BME280;7801;48.124;11.590;2023-05-25T00:25:48;95719.06;;;13.57;67.32
15405;BME280;7801;48.124;11.590;2023-05-25T00:28:13;95717.91;;;13.50;67.63
15405;BME280;7801;48.124;11.590;2023-05-25T00:30:39;95716.16;;;13.45;67.34
15405;BME280;7801;48.124;11.590;2023-05-25T00:33:04;95707.50;;;13.62;66.83
15405;BME280;7801;48.124;11.590;2023-05-25T00:35:29;95699.66;;;13.43;67.02
15405;BME280;7801;48.124;11.590;2023-05-25T00:37:55;95700.34;;;13.49;67.34
15405;BME280;7801;48.124;11.590;2023-05-25T00:40:20;95699.28;;;13.36;67.68
15405;BME280;7801;48.124;11.590;2023-05-25T00:42:46;95698.88;;;13.43;67.54
15405;BME280;7801;48.124;11.590;2023-05-25T00:45:11;95692.81;;;13.28;68.05
15405;BME280;7801;48.124;11.590;2023-05-25T00:47:38;95693.13;;;13.27;68.42
15405;BME280;7801;48.124;11.590;2023-05-25T00:50:07;95695.69;;;13.18;68.66
15405;BME280;7801;48.124;11.590;2023-05-25T00:52:33;95691.75;;;13.02;69.33
15405;BME280;7801;48.124;11.590;2023-05-25T00:54:59;95687.31;;;12.97;69.76
15405;BME280;7801;48.124;11.590;2023-05-25T00:57:27;95672.37;;;12.88;70.37
15405;BME280;7801;48.124;11.590;2023-05-25T00:59:54;95676.69;;;12.84;70.75
15405;BME280;7801;48.124;11.590;2023-05-25T01:02:22;95682.22;;;12.87;71.00
15405;BME280;7801;48.124;11.590;2023-05-25T01:04:51;95690.09;;;12.92;70.98
15405;BME280;7801;48.124;11.590;2023-05-25T01:07:21;95686.53;;;12.97;70.90
15405;BME280;7801;48.124;11.590;2023-05-25T01:09:47;95689.69;;;12.99;70.69
15405;BME280;7801;48.124;11.590;2023-05-25T01:12:15;95698.06;;;12.92;71.10
15405;BME280;7801;48.124;11.590;2023-05-25T01:14:42;95696.19;;;12.93;71.31
15405;BME280;7801;48.124;11.590;2023-05-25T01:17:09;95694.91;;;13.04;71.21
15405;BME280;7801;48.124;11.590;2023-05-25T01:19:35;95696.41;;;12.96;71.31
15405;BME280;7801;48.124;11.590;2023-05-25T01:22:27;95691.94;;;13.05;71.31
15405;BME280;7801;48.124;11.590;2023-05-25T01:24:58;95693.63;;;13.01;71.24
15405;BME280;7801;48.124;11.590;2023-05-25T01:27:35;95691.66;;;13.07;71.19
15405;BME280;7801;48.124;11.590;2023-05-25T01:30:05;95688.34;;;12.88;72.26
15405;BME280;7801;48.124;11.590;2023-05-25T01:32:35;95688.91;;;12.98;72.25
15405;BME280;7801;48.124;11.590;2023-05-25T01:35:03;95689.13;;;12.88;72.81
15405;BME280;7801;48.124;11.590;2023-05-25T01:37:29;95686.81;;;12.95;72.81
15405;BME280;7801;48.124;11.590;2023-05-25T01:39:56;95678.56;;;12.83;73.22
15405;BME280;7801;48.124;11.590;2023-05-25T01:42:21;95686.84;;;12.82;73.76
15405;BME280;7801;48.124;11.590;2023-05-25T01:44:47;95694.91;;;12.90;73.61
15405;BME280;7801;48.124;11.590;2023-05-25T01:47:19;95696.31;;;12.88;74.12
15405;BME280;7801;48.124;11.590;2023-05-25T01:49:55;95686.75;;;12.87;74.48
15405;BME280;7801;48.124;11.590;2023-05-25T01:52:35;95691.78;;;12.88;75.15
15405;BME280;7801;48.124;11.590;2023-05-25T01:55:21;95695.31;;;12.97;75.07
15405;BME280;7801;48.124;11.590;2023-05-25T01:57:49;95694.31;;;12.93;75.65
15405;BME280;7801;48.124;11.590;2023-05-25T02:00:17;95704.28;;;13.01;75.67
15405;BME280;7801;48.124;11.590;2023-05-25T02:02:45;95706.66;;;13.17;75.45
15405;BME280;7801;48.124;11.590;2023-05-25T02:05:12;95700.13;;;13.09;75.78
15405;BME280;7801;48.124;11.590;2023-05-25T02:07:38;95700.59;;;13.11;76.22
15405;BME280;7801;48.124;11.590;2023-05-25T02:10:04;95701.38;;;13.12;76.75
15405;BME280;7801;48.124;11.590;2023-05-25T02:12:29;95691.94;;;13.05;77.48
15405;BME280;7801;48.124;11.590;2023-05-25T02:14:55;95696.97;;;13.07;78.26
15405;BME280;7801;48.124;11.590;2023-05-25T02:17:20;95687.81;;;12.99;79.10
15405;BME280;7801;48.124;11.590;2023-05-25T02:19:45;95689.00;;;13.07;79.47
15405;BME280;7801;48.124;11.590;2023-05-25T02:22:13;95686.13;;;13.03;80.31
15405;BME280;7801;48.124;11.590;2023-05-25T02:24:38;95688.56;;;13.14;80.18
15405;BME280;7801;48.124;11.590;2023-05-25T02:27:05;95685.31;;;13.17;80.73
15405;BME280;7801;48.124;11.590;2023-05-25T02:29:30;95687.91;;;13.08;81.52
15405;BME280;7801;48.124;11.590;2023-05-25T02:31:56;95688.09;;;13.25;81.20
15405;BME280;7801;48.124;11.590;2023-05-25T02:34:21;95686.22;;;13.26;81.46
15405;BME280;7801;48.124;11.590;2023-05-25T02:36:46;95678.69;;;13.28;81.89
15405;BME280;7801;48.124;11.590;2023-05-25T02:39:12;95678.03;;;13.45;82.00
15405;BME280;7801;48.124;11.590;2023-05-25T02:41:38;95675.75;;;13.29;83.28
15405;BME280;7801;48.124;11.590;2023-05-25T02:44:03;95676.78;;;13.42;83.39
15405;BME280;7801;48.124;11.590;2023-05-25T02:46:29;95677.06;;;13.40;84.15
15405;BME280;7801;48.124;11.590;2023-05-25T02:48:54;95679.44;;;13.42;84.47
15405;BME280;7801;48.124;11.590;2023-05-25T02:51:20;95678.47;;;13.38;85.32
15405;BME280;7801;48.124;11.590;2023-05-25T02:53:45;95673.88;;;13.30;86.32
15405;BME280;7801;48.124;11.590;2023-05-25T02:56:10;95671.97;;;13.30;87.10
15405;BME280;7801;48.124;11.590;2023-05-25T02:58:36;95667.75;;;13.29;87.44
15405;BME280;7801;48.124;11.590;2023-05-25T03:01:02;95668.69;;;13.33;87.54
15405;BME280;7801;48.124;11.590;2023-05-25T03:03:29;95666.03;;;13.33;87.80
15405;BME280;7801;48.124;11.590;2023-05-25T03:05:54;95673.97;;;13.25;88.20
15405;BME280;7801;48.124;11.590;2023-05-25T03:08:21;95670.81;;;13.23;88.70
15405;BME280;7801;48.124;11.590;2023-05-25T03:10:46;95665.19;;;13.24;88.74
15405;BME280;7801;48.124;11.590;2023-05-25T03:13:12;95675.16;;;13.19;89.16
15405;BME280;7801;48.124;11.590;2023-05-25T03:15:37;95679.59;;;13.09;89.79
15405;BME280;7801;48.124;11.590;2023-05-25T03:18:04;95680.06;;;13.12;89.88
15405;BME280;7801;48.124;11.590;2023-05-25T03:20:30;95679.28;;;13.11;89.87
15405;BME280;7801;48.124;11.590;2023-05-25T03:22:56;95686.63;;;13.19;89.54
15405;BME280;7801;48.124;11.590;2023-05-25T03:25:22;95690.34;;;13.18;89.75
15405;BME280;7801;48.124;11.590;2023-05-25T03:27:50;95683.41;;;13.31;89.05
15405;BME280;7801;48.124;11.590;2023-05-25T03:30:16;95684.97;;;13.32;88.78
15405;BME280;7801;48.124;11.590;2023-05-25T03:32:41;95681.47;;;13.23;89.06
15405;BME280;7801;48.124;11.590;2023-05-25T03:35:07;95681.88;;;13.16;89.21
15405;BME280;7801;48.124;11.590;2023-05-25T03:37:32;95678.91;;;13.18;89.22
15405;BME280;7801;48.124;11.590;2023-05-25T03:39:57;95685.31;;;13.17;89.24
15405;BME280;7801;48.124;11.590;2023-05-25T03:42:23;95683.22;;;13.14;89.40
15405;BME280;7801;48.124;11.590;2023-05-25T03:44:48;95685.91;;;13.14;89.41
15405;BME280;7801;48.124;11.590;2023-05-25T03:47:13;95686.63;;;13.05;89.84
15405;BME280;7801;48.124;11.590;2023-05-25T03:49:38;95686.13;;;13.03;89.77
15405;BME280;7801;48.124;11.590;2023-05-25T03:52:04;95687.41;;;13.06;89.50
15405;BME280;7801;48.124;11.590;2023-05-25T03:54:30;95681.09;;;13.02;89.70
15405;BME280;7801;48.124;11.590;2023-05-25T03:56:56;95689.38;;;13.00;89.39
15405;BME280;7801;48.124;11.590;2023-05-25T03:59:26;95695.69;;;13.04;89.47
15405;BME280;7801;48.124;11.590;2023-05-25T04:01:51;95697.28;;;13.05;89.04
15405;BME280;7801;48.124;11.590;2023-05-25T04:04:17;95689.00;;;13.07;88.90
15405;BME280;7801;48.124;11.590;2023-05-25T04:06:42;95690.25;;;13.09;88.94
15405;BME280;7801;48.124;11.590;2023-05-25T04:09:10;95696.00;;;13.17;88.73
15405;BME280;7801;48.124;11.590;2023-05-25T04:11:35;95696.06;;;13.25;88.32
15405;BME280;7801;48.124;11.590;2023-05-25T04:14:01;95698.44;;;13.27;88.13
15405;BME280;7801;48.124;11.590;2023-05-25T04:16:26;95702.00;;;13.08;88.71
15405;BME280;7801;48.124;11.590;2023-05-25T04:18:51;95704.38;;;13.24;88.34
15405;BME280;7801;48.124;11.590;2023-05-25T04:21:17;95706.97;;;13.37;87.55
15405;BME280;7801;48.124;11.590;2023-05-25T04:23:42;95711.47;;;13.28;87.80
15405;BME280;7801;48.124;11.590;2023-05-25T04:26:07;95715.88;;;13.33;87.48
15405;BME280;7801;48.124;11.590;2023-05-25T04:28:35;95713.25;;;13.19;88.17
15405;BME280;7801;48.124;11.590;2023-05-25T04:31:01;95708.50;;;13.30;87.89
15405;BME280;7801;48.124;11.590;2023-05-25T04:33:28;95715.72;;;13.29;87.95
15405;BME280;7801;48.124;11.590;2023-05-25T04:35:54;95702.63;;;13.41;87.66
15405;BME280;7801;48.124;11.590;2023-05-25T04:38:23;95709.66;;;13.37;87.35
15405;BME280;7801;48.124;11.590;2023-05-25T04:40:49;95719.03;;;13.35;87.23
15405;BME280;7801;48.124;11.590;2023-05-25T04:43:14;95714.91;;;13.29;87.47
15405;BME280;7801;48.124;11.590;2023-05-25T04:45:45;95705.69;;;13.35;87.42
15405;BME280;7801;48.124;11.590;2023-05-25T04:48:11;95707.91;;;13.19;88.33
15405;BME280;7801;48.124;11.590;2023-05-25T04:50:39;95696.06;;;13.25;88.36
15405;BME280;7801;48.124;11.590;2023-05-25T04:53:05;95707.09;;;13.32;87.99
15405;BME280;7801;48.124;11.590;2023-05-25T04:55:30;95703.16;;;13.30;88.29
15405;BME280;7801;48.124;11.590;2023-05-25T04:57:56;95706.69;;;13.39;87.69
15405;BME280;7801;48.124;11.590;2023-05-25T05:00:21;95713.47;;;13.45;87.74
15405;BME280;7801;48.124;11.590;2023-05-25T05:02:47;95713.22;;;13.33;87.68
15405;BME280;7801;48.124;11.590;2023-05-25T05:05:12;95716.38;;;13.35;88.17
15405;BME280;7801;48.124;11.590;2023-05-25T05:07:38;95719.41;;;13.42;87.93
15405;BME280;7801;48.124;11.590;2023-05-25T05:10:04;95722.00;;;13.33;88.50
15405;BME280;7801;48.124;11.590;2023-05-25T05:12:29;95725.16;;;13.35;88.73
15405;BME280;7801;48.124;11.590;2023-05-25T05:14:55;95740.63;;;13.47;87.95
15405;BME280;7801;48.124;11.590;2023-05-25T05:17:20;95743.59;;;13.46;87.79
15405;BME280;7801;48.124;11.590;2023-05-25T05:19:47;95741.56;;;13.51;87.67
15405;BME280;7801;48.124;11.590;2023-05-25T05:22:12;95741.56;;;13.51;87.86
15405;BME280;7801;48.124;11.590;2023-05-25T05:24:40;95739.03;;;13.46;87.97
15405;BME280;7801;48.124;11.590;2023-05-25T05:27:05;95730.47;;;13.49;88.16
15405;BME280;7801;48.124;11.590;2023-05-25T05:29:31;95740.03;;;13.50;88.07
15405;BME280;7801;48.124;11.590;2023-05-25T05:31:58;95745.72;;;13.57;87.97
15405;BME280;7801;48.124;11.590;2023-05-25T05:34:24;95746.09;;;13.64;87.64
15405;BME280;7801;48.124;11.590;2023-05-25T05:36:49;95745.69;;;13.71;87.48
15405;BME280;7801;48.124;11.590;2023-05-25T05:39:15;95740.03;;;13.72;87.32
15405;BME280;7801;48.124;11.590;2023-05-25T05:41:40;95740.28;;;13.85;86.77
15405;BME280;7801;48.124;11.590;2023-05-25T05:44:08;95749.75;;;13.91;86.71
15405;BME280;7801;48.124;11.590;2023-05-25T05:46:33;95754.09;;;13.87;86.80
15405;BME280;7801;48.124;11.590;2023-05-25T05:48:58;95768.03;;;13.84;87.08
15405;BME280;7801;48.124;11.590;2023-05-25T05:51:23;95756.66;;;13.92;87.01
15405;BME280;7801;48.124;11.590;2023-05-25T05:53:49;95760.66;;;13.81;87.34
15405;BME280;7801;48.124;11.590;2023-05-25T05:56:18;95759.44;;;13.87;87.32
15405;BME280;7801;48.124;11.590;2023-05-25T05:58:43;95758.56;;;13.77;87.74
15405;BME280;7801;48.124;11.590;2023-05-25T06:01:09;95758.53;;;13.69;88.35
15405;BME280;7801;48.124;11.590;2023-05-25T06:03:34;95746.00;;;13.92;94.43
15405;BME280;7801;48.124;11.590;2023-05-25T06:05:59;95751.41;;;14.93;100.00
15405;BME280;7801;48.124;11.590;2023-05-25T06:08:26;95752.09;;;15.33;100.00
15405;BME280;7801;48.124;11.590;2023-05-25T06:10:51;95752.94;;;15.68;97.28
15405;BME280;7801;48.124;11.590;2023-05-25T06:13:17;95753.41;;;15.96;92.97
15405;BME280;7801;48.124;11.590;2023-05-25T06:15:42;95763.28;;;16.30;87.58
15405;BME280;7801;48.124;11.590;2023-05-25T06:18:08;95751.53;;;16.61;88.41
15405;BME280;7801;48.124;11.590;2023-05-25T06:20:33;95766.28;;;16.84;88.56
15405;BME280;7801;48.124;11.590;2023-05-25T06:22:59;95759.47;;;16.95;84.55
15405;BME280;7801;48.124;11.590;2023-05-25T06:25:25;95762.22;;;17.07;81.45
15405;BME280;7801;48.124;11.590;2023-05-25T06:27:50;95765.84;;;17.11;80.32
15405;BME280;7801;48.124;11.590;2023-05-25T06:30:16;95769.59;;;17.19;79.35
15405;BME280;7801;48.124;11.590;2023-05-25T06:32:41;95768.81;;;17.18;78.43
15405;BME280;7801;48.124;11.590;2023-05-25T06:35:07;95770.84;;;17.22;78.49
15405;BME280;7801;48.124;11.590;2023-05-25T06:37:33;95767.91;;;17.06;78.14
15405;BME280;7801;48.124;11.590;2023-05-25T06:40:05;95779.94;;;17.00;78.33
15405;BME280;7801;48.124;11.590;2023-05-25T06:42:34;95779.81;;;16.96;77.24
15405;BME280;7801;48.124;11.590;2023-05-25T06:44:59;95779.25;;;17.11;77.44
15405;BME280;7801;48.124;11.590;2023-05-25T06:47:25;95778.28;;;17.16;76.84
15405;BME280;7801;48.124;11.590;2023-05-25T06:49:50;95781.62;;;17.04;76.96
15405;BME280;7801;48.124;11.590;2023-05-25T06:52:16;95787.00;;;17.04;77.10
15405;BME280;7801;48.124;11.590;2023-05-25T06:54:41;95788.00;;;16.91;77.03
15405;BME280;7801;48.124;11.590;2023-05-25T06:57:06;95789.34;;;17.06;77.54
15405;BME280;7801;48.124;11.590;2023-05-25T06:59:32;95792.97;;;17.10;76.30
15405;BME280;7801;48.124;11.590;2023-05-25T07:01:58;95787.22;;;16.91;79.33
15405;BME280;7801;48.124;11.590;2023-05-25T07:04:24;95797.88;;;15.40;80.21
15405;BME280;7801;48.124;11.590;2023-05-25T07:06:50;95795.00;;;14.71;83.33
15405;BME280;7801;48.124;11.590;2023-05-25T07:09:16;95797.41;;;14.51;84.75
15405;BME280;7801;48.124;11.590;2023-05-25T07:11:42;95787.94;;;14.75;86.49
15405;BME280;7801;48.124;11.590;2023-05-25T07:14:07;95801.44;;;14.79;84.51
15405;BME280;7801;48.124;11.590;2023-05-25T07:16:32;95792.56;;;15.01;85.99
15405;BME280;7801;48.124;11.590;2023-05-25T07:18:58;95794.06;;;15.16;83.83
15405;BME280;7801;48.124;11.590;2023-05-25T07:21:23;95799.63;;;15.36;81.29
15405;BME280;7801;48.124;11.590;2023-05-25T07:23:49;95815.09;;;14.69;83.59
15405;BME280;7801;48.124;11.590;2023-05-25T07:26:14;95804.81;;;14.93;83.45
15405;BME280;7801;48.124;11.590;2023-05-25T07:28:40;95796.38;;;15.65;81.21
15405;BME280;7801;48.124;11.590;2023-05-25T07:31:05;95803.47;;;15.78;81.28
15405;BME280;7801;48.124;11.590;2023-05-25T07:33:31;95798.41;;;16.03;80.35
15405;BME280;7801;48.124;11.590;2023-05-25T07:35:56;95810.34;;;15.05;80.94
15405;BME280;7801;48.124;11.590;2023-05-25T07:38:21;95796.19;;;14.96;81.73
15405;BME280;7801;48.124;11.590;2023-05-25T07:40:47;95809.78;;;15.17;80.32
15405;BME280;7801;48.124;11.590;2023-05-25T07:43:13;95814.13;;;15.61;81.34
15405;BME280;7801;48.124;11.590;2023-05-25T07:45:38;95803.63;;;15.91;79.89
15405;BME280;7801;48.124;11.590;2023-05-25T07:48:04;95811.31;;;15.58;79.56
15405;BME280;7801;48.124;11.590;2023-05-25T07:50:31;95817.94;;;15.69;79.24
15405;BME280;7801;48.124;11.590;2023-05-25T07:52:57;95815.44;;;15.90;78.51
15405;BME280;7801;48.124;11.590;2023-05-25T07:55:25;95813.06;;;15.97;78.30
15405;BME280;7801;48.124;11.590;2023-05-25T07:57:50;95825.16;;;15.60;79.67
15405;BME280;7801;48.124;11.590;2023-05-25T08:00:16;95826.38;;;15.54;78.79
15405;BME280;7801;48.124;11.590;2023-05-25T08:02:42;95832.00;;;15.35;79.62
15405;BME280;7801;48.124;11.590;2023-05-25T08:05:08;95824.13;;;15.30;80.06
15405;BME280;7801;48.124;11.590;2023-05-25T08:07:34;95824.34;;;15.02;81.65
15405;BME280;7801;48.124;11.590;2023-05-25T08:10:00;95829.06;;;15.05;81.64
15405;BME280;7801;48.124;11.590;2023-05-25T08:12:26;95831.59;;;15.10;81.32
15405;BME280;7801;48.124;11.590;2023-05-25T08:14:52;95831.00;;;15.13;81.57
15405;BME280;7801;48.124;11.590;2023-05-25T08:17:18;95832.41;;;15.11;82.42
15405;BME280;7801;48.124;11.590;2023-05-25T08:19:44;95841.88;;;15.26;81.90
15405;BME280;7801;48.124;11.590;2023-05-25T08:22:09;95845.38;;;15.35;80.88
15405;BME280;7801;48.124;11.590;2023-05-25T08:24:35;95849.16;;;15.42;80.82
15405;BME280;7801;48.124;11.590;2023-05-25T08:27:00;95842.09;;;15.38;81.44
15405;BME280;7801;48.124;11.590;2023-05-25T08:29:26;95853.34;;;15.26;81.03
15405;BME280;7801;48.124;11.590;2023-05-25T08:31:52;95841.44;;;15.32;81.27
15405;BME280;7801;48.124;11.590;2023-05-25T08:34:17;95844.41;;;15.31;80.77
15405;BME280;7801;48.124;11.590;2023-05-25T08:36:43;95849.53;;;15.10;82.02
15405;BME280;7801;48.124;11.590;2023-05-25T08:39:09;95846.56;;;15.20;81.22
15405;BME280;7801;48.124;11.590;2023-05-25T08:41:41;95845.44;;;15.12;82.06
15405;BME280;7801;48.124;11.590;2023-05-25T08:44:07;95843.75;;;15.17;81.06
15405;BME280;7801;48.124;11.590;2023-05-25T08:46:33;95848.28;;;15.16;81.47
15405;BME280;7801;48.124;11.590;2023-05-25T08:49:04;95857.09;;;15.17;81.58
15405;BME280;7801;48.124;11.590;2023-05-25T08:51:34;95856.38;;;15.42;82.74
15405;BME280;7801;48.124;11.590;2023-05-25T08:54:06;95861.41;;;15.35;81.58
15405;BME280;7801;48.124;11.590;2023-05-25T08:56:36;95860.94;;;15.33;81.35
15405;BME280;7801;48.124;11.590;2023-05-25T08:59:20;95864.28;;;15.47;82.16
15405;BME280;7801;48.124;11.590;2023-05-25T09:01:55;95862.59;;;15.60;81.69
15405;BME280;7801;48.124;11.590;2023-05-25T09:04:23;95863.81;;;15.54;80.74
15405;BME280;7801;48.124;11.590;2023-05-25T09:06:49;95862.22;;;15.44;80.92
15405;BME280;7801;48.124;11.590;2023-05-25T09:09:15;95877.84;;;15.20;82.14
15405;BME280;7801;48.124;11.590;2023-05-25T09:11:42;95873.34;;;15.29;80.98
15405;BME280;7801;48.124;11.590;2023-05-25T09:14:07;95877.22;;;15.23;81.22
15405;BME280;7801;48.124;11.590;2023-05-25T09:16:34;95870.72;;;15.46;81.05
15405;BME280;7801;48.124;11.590;2023-05-25T09:19:00;95876.84;;;15.38;80.59
15405;BME280;7801;48.124;11.590;2023-05-25T09:21:26;95880.94;;;15.44;80.71
15405;BME280;7801;48.124;11.590;2023-05-25T09:23:51;95885.66;;;15.47;80.08
15405;BME280;7801;48.124;11.590;2023-05-25T09:26:17;95880.94;;;15.44;80.33
15405;BME280;7801;48.124;11.590;2023-05-25T09:28:44;95889.25;;;15.34;81.25
15405;BME280;7801;48.124;11.590;2023-05-25T09:31:14;95898.84;;;15.35;81.02
15405;BME280;7801;48.124;11.590;2023-05-25T09:33:40;95897.69;;;15.27;81.45
15405;BME280;7801;48.124;11.590;2023-05-25T09:36:06;95886.56;;;15.34;81.32
15405;BME280;7801;48.124;11.590;2023-05-25T09:38:32;95893.19;;;15.36;81.32
15405;BME280;7801;48.124;11.590;2023-05-25T09:40:58;95904.81;;;15.32;81.67
15405;BME280;7801;48.124;11.590;2023-05-25T09:43:23;95896.91;;;15.27;81.95
15405;BME280;7801;48.124;11.590;2023-05-25T09:45:51;95908.31;;;15.10;82.47
15405;BME280;7801;48.124;11.590;2023-05-25T09:48:17;95907.44;;;15.23;82.32
15405;BME280;7801;48.124;11.590;2023-05-25T09:50:42;95907.78;;;15.30;82.02
15405;BME280;7801;48.124;11.590;2023-05-25T09:53:08;95911.72;;;15.33;82.29
15405;BME280;7801;48.124;11.590;2023-05-25T09:55:35;95908.44;;;15.36;81.76
15405;BME280;7801;48.124;11.590;2023-05-25T09:58:01;95906.09;;;15.43;81.53
15405;BME280;7801;48.124;11.590;2023-05-25T10:00:26;95899.38;;;15.54;81.43
15405;BME280;7801;48.124;11.590;2023-05-25T10:02:52;95898.00;;;15.65;81.05
15405;BME280;7801;48.124;11.590;2023-05-25T10:05:17;95904.47;;;15.64;81.05
15405;BME280;7801;48.124;11.590;2023-05-25T10:07:44;95903.34;;;15.65;80.85
15405;BME280;7801;48.124;11.590;2023-05-25T10:10:13;95905.16;;;15.78;80.43
15405;BME280;7801;48.124;11.590;2023-05-25T10:12:40;95907.31;;;15.68;81.23
15405;BME280;7801;48.124;11.590;2023-05-25T10:15:08;95906.03;;;15.65;80.94
15405;BME280;7801;48.124;11.590;2023-05-25T10:17:42;95911.28;;;15.79;80.32
15405;BME280;7801;48.124;11.590;2023-05-25T10:20:08;95909.53;;;15.74;79.85
15405;BME280;7801;48.124;11.590;2023-05-25T10:25:22;95919.31;;;15.88;79.61
15405;BME280;7801;48.124;11.590;2023-05-25T10:27:57;95905.16;;;15.96;79.48
15405;BME280;7801;48.124;11.590;2023-05-25T10:30:25;95910.53;;;15.96;79.81
15405;BME280;7801;48.124;11.590;2023-05-25T10:32:51;95905.00;;;16.01;79.22
15405;BME280;7801;48.124;11.590;2023-05-25T10:35:16;95904.06;;;15.97;79.20
15405;BME280;7801;48.124;11.590;2023-05-25T10:37:43;95911.00;;;15.98;79.53
15405;BME280;7801;48.124;11.590;2023-05-25T10:40:11;95907.22;;;15.99;79.44
15405;BME280;7801;48.124;11.590;2023-05-25T10:42:38;95908.63;;;16.05;78.84
15405;BME280;7801;48.124;11.590;2023-05-25T10:45:06;95899.03;;;16.12;79.12
15405;BME280;7801;48.124;11.590;2023-05-25T10:47:35;95902.50;;;16.13;79.29
15405;BME280;7801;48.124;11.590;2023-05-25T10:50:01;95900.47;;;16.27;79.12
15405;BME280;7801;48.124;11.590;2023-05-25T10:52:30;95904.56;;;16.33;78.52
15405;BME280;7801;48.124;11.590;2023-05-25T10:54:56;95901.88;;;16.25;78.52
15405;BME280;7801;48.124;11.590;2023-05-25T10:57:23;95899.97;;;16.25;78.24
15405;BME280;7801;48.124;11.590;2023-05-25T11:00:04;95899.34;;;16.11;78.98
15405;BME280;7801;48.124;11.590;2023-05-25T11:02:48;95905.66;;;16.15;79.59
15405;BME280;7801;48.124;11.590;2023-05-25T11:08:02;95895.72;;;16.24;79.07
15405;BME280;7801;48.124;11.590;2023-05-25T11:16:17;95891.63;;;16.44;79.13
15405;BME280;7801;48.124;11.590;2023-05-25T11:18:51;95897.00;;;16.53;78.61
15405;BME280;7801;48.124;11.590;2023-05-25T11:24:02;95899.69;;;16.70;78.25
15405;BME280;7801;48.124;11.590;2023-05-25T11:26:29;95892.75;;;16.69;77.50
15405;BME280;7801;48.124;11.590;2023-05-25T11:28:56;95893.53;;;16.78;78.58
15405;BME280;7801;48.124;11.590;2023-05-25T11:31:30;95905.94;;;16.91;77.13
15405;BME280;7801;48.124;11.590;2023-05-25T11:33:57;95897.94;;;16.82;77.70
15405;BME280;7801;48.124;11.590;2023-05-25T11:36:23;95896.00;;;16.92;76.94
15405;BME280;7801;48.124;11.590;2023-05-25T11:38:50;95899.16;;;16.94;77.11
15405;BME280;7801;48.124;11.590;2023-05-25T11:41:20;95895.53;;;16.98;76.68
15405;BME280;7801;48.124;11.590;2023-05-25T11:43:49;95888.22;;;17.07;76.33
15405;BME280;7801;48.124;11.590;2023-05-25T11:46:16;95885.75;;;17.02;75.78
15405;BME280;7801;48.124;11.590;2023-05-25T11:48:50;95891.75;;;16.99;75.43
15405;BME280;7801;48.124;11.590;2023-05-25T11:51:16;95889.19;;;17.11;75.82
15405;BME280;7801;48.124;11.590;2023-05-25T11:53:43;95886.66;;;17.06;75.89
15405;BME280;7801;48.124;11.590;2023-05-25T11:56:10;95888.53;;;17.14;75.84
15405;BME280;7801;48.124;11.590;2023-05-25T11:58:35;95887.91;;;17.17;75.18
15405;BME280;7801;48.124;11.590;2023-05-25T12:01:20;95881.34;;;17.36;75.73
15405;BME280;7801;48.124;11.590;2023-05-25T12:03:51;95874.88;;;17.37;75.05
15405;BME280;7801;48.124;11.590;2023-05-25T12:06:30;95877.00;;;17.52;74.33
15405;BME280;7801;48.124;11.590;2023-05-25T12:08:59;95877.63;;;17.58;74.50
15405;BME280;7801;48.124;11.590;2023-05-25T12:11:35;95874.94;;;17.66;74.02
15405;BME280;7801;48.124;11.590;2023-05-25T12:14:09;95870.06;;;17.51;75.65
15405;BME280;7801;48.124;11.590;2023-05-25T12:16:35;95871.78;;;17.64;75.52
15405;BME280;7801;48.124;11.590;2023-05-25T12:19:06;95869.81;;;17.73;74.64
15405;BME280;7801;48.124;11.590;2023-05-25T12:21:32;95866.69;;;17.92;72.96
15405;BME280;7801;48.124;11.590;2023-05-25T12:23:58;95870.19;;;17.93;73.44
15405;BME280;7801;48.124;11.590;2023-05-25T12:26:24;95873.47;;;17.98;73.16
15405;BME280;7801;48.124;11.590;2023-05-25T12:29:01;95866.94;;;18.08;73.03
15405;BME280;7801;48.124;11.590;2023-05-25T12:31:36;95872.31;;;18.08;72.32
15405;BME280;7801;48.124;11.590;2023-05-25T12:39:06;95858.66;;;18.13;72.99
15405;BME280;7801;48.124;11.590;2023-05-25T12:41:47;95866.78;;;18.25;72.98
15405;BME280;7801;48.124;11.590;2023-05-25T12:46:53;95855.91;;;18.42;72.05
15405;BME280;7801;48.124;11.590;2023-05-25T12:49:27;95870.94;;;18.55;70.77
15405;BME280;7801;48.124;11.590;2023-05-25T12:51:53;95861.97;;;18.51;70.59
15405;BME280;7801;48.124;11.590;2023-05-25T12:54:38;95860.75;;;18.49;71.97
15405;BME280;7801;48.124;11.590;2023-05-25T12:57:09;95857.47;;;18.43;71.26
15405;BME280;7801;48.124;11.590;2023-05-25T12:59:35;95850.91;;;18.32;72.56
15405;BME280;7801;48.124;11.590;2023-05-25T13:02:02;95852.09;;;18.43;72.52
15405;BME280;7801;48.124;11.590;2023-05-25T13:04:28;95845.50;;;18.53;71.69
15405;BME280;7801;48.124;11.590;2023-05-25T13:06:54;95848.66;;;18.55;71.30
15405;BME280;7801;48.124;11.590;2023-05-25T13:09:22;95858.62;;;18.54;71.01
15405;BME280;7801;48.124;11.590;2023-05-25T13:11:48;95850.53;;;18.42;72.05
15405;BME280;7801;48.124;11.590;2023-05-25T13:14:13;95846.53;;;18.48;71.30
15405;BME280;7801;48.124;11.590;2023-05-25T13:16:38;95848.16;;;18.41;71.41
15405;BME280;7801;48.124;11.590;2023-05-25T13:19:04;95847.31;;;18.49;71.61
15405;BME280;7801;48.124;11.590;2023-05-25T13:21:29;95847.25;;;18.37;72.34